Edmonton International Airport
CYEG : now visible

Airfield :











YOU CAN JOIN US ON...

 
LOGIN :

Register | Disclaimer

   EN    FR    IT 

 









Legend :    VFR   Marginal VFR   IFR   Intensive IFR   Very Intensive IFR
Visi :
Ceiling :
>= 8 km
>= 3000ft
5 to 8 km
1000 to 3000 ft
1500m to 5 km
500 to 1000 ft
800 to 1500m
200 to 500 ft
< 800m
< 200 ft
Symbols :   Thunderstorms  Fog  Heavy snow  Heavy precipitations  Wind > 20 kt






- Airport Elevation : 2373 ft
- IATA code : YEG


CYEG - Edmonton International

CURRENT METAR :
  • 041700Z 30006KT 250V320 20SM FEW110 FEW250 19/11 A3006 RMK AC1CI1 CI TR SLP188 DENSITY ALT 3300FT

EXPIRED METARs :
  • 041600Z 29007KT 250V320 20SM FEW110 18/10 A3007 RMK AC1 SLP188 DENSITY ALT 3200FT
  • 041500Z 27005KT 20SM FEW080 FEW110 17/13 A3007 RMK ACC1AC1 ACC TR SLP188 DENSITY ALT 3000FT

TAF TAF CYEG
Valid from the 04 at 15:00 until the 05 at 12:00 UTC


041438Z 0415/0512 VRB03KT P6SM FEW080
BECMG 0415/0417 30010KT
FM041700 30010KT P6SM FEW060
FM050100 VRB03KT P6SM SKC RMK NXT FCST BY 041800Z
CZEG FIR / North America



MET'MAP, your aeronautical weather chart ! - Copyright ORBIFLY December 2007 - Disclaimer

ORBIFLY MET'MAP TEAM :

Programming & Development : Alexandra Zaïnal
Concept & original design : Baudouin d'Aumeries
Assistance for programming : Marc-Olivier Méhu
Technical & hardware support : Manuel Goepfert

Contact : metmap@orbifly.com




SOURCES & CREDITS :

   NOAA       Earth
Advisory